sensor_id;sensor_type;location;lat;lon;timestamp;temperature;humidity
59703;DHT22;45570;48.782;8.332;2022-11-02T09:06:21;14.30;99.90
59703;DHT22;45570;48.782;8.332;2022-11-02T09:08:49;14.40;99.90
59703;DHT22;45570;48.782;8.332;2022-11-02T09:11:23;14.60;99.90
59703;DHT22;45570;48.782;8.332;2022-11-02T09:13:52;14.60;99.90
59703;DHT22;45570;48.782;8.332;2022-11-02T09:16:23;14.70;99.90
59703;DHT22;45570;48.782;8.332;2022-11-02T09:18:52;14.60;99.90
59703;DHT22;45570;48.782;8.332;2022-11-02T09:21:22;14.60;99.90
59703;DHT22;45570;48.782;8.332;2022-11-02T09:23:51;14.70;99.90
59703;DHT22;45570;48.782;8.332;2022-11-02T09:26:19;14.60;99.90
59703;DHT22;45570;48.782;8.332;2022-11-02T09:28:48;14.50;99.90
59703;DHT22;45570;48.782;8.332;2022-11-02T09:31:17;14.40;99.90
59703;DHT22;45570;48.782;8.332;2022-11-02T09:33:46;14.40;99.90
59703;DHT22;45570;48.782;8.332;2022-11-02T09:36:14;14.30;99.90
59703;DHT22;45570;48.782;8.332;2022-11-02T09:38:45;14.40;99.90
59703;DHT22;45570;48.782;8.332;2022-11-02T09:41:18;14.40;99.90
59703;DHT22;45570;48.782;8.332;2022-11-02T09:43:54;14.40;99.90
59703;DHT22;45570;48.782;8.332;2022-11-02T09:46:29;14.40;99.90
59703;DHT22;45570;48.782;8.332;2022-11-02T09:49:02;14.50;99.90
59703;DHT22;45570;48.782;8.332;2022-11-02T09:51:33;14.60;99.90
59703;DHT22;45570;48.782;8.332;2022-11-02T09:54:11;14.60;99.90
59703;DHT22;45570;48.782;8.332;2022-11-02T09:56:45;14.70;99.90
59703;DHT22;45570;48.782;8.332;2022-11-02T09:59:16;14.90;99.90
59703;DHT22;45570;48.782;8.332;2022-11-02T10:01:52;15.10;99.90
59703;DHT22;45570;48.782;8.332;2022-11-02T10:04:50;15.10;99.90
59703;DHT22;45570;48.782;8.332;2022-11-02T10:07:33;15.30;99.90
59703;DHT22;45570;48.782;8.332;2022-11-02T10:10:10;15.50;99.90
59703;DHT22;45570;48.782;8.332;2022-11-02T10:12:48;15.90;99.90
59703;DHT22;45570;48.782;8.332;2022-11-02T10:15:20;16.10;99.90
59703;DHT22;45570;48.782;8.332;2022-11-02T10:17:53;16.20;99.90
59703;DHT22;45570;48.782;8.332;2022-11-02T10:20:26;16.30;99.90
59703;DHT22;45570;48.782;8.332;2022-11-02T10:23:00;16.40;99.90
59703;DHT22;45570;48.782;8.332;2022-11-02T10:25:34;16.40;99.90
59703;DHT22;45570;48.782;8.332;2022-11-02T10:28:10;16.20;99.90
59703;DHT22;45570;48.782;8.332;2022-11-02T10:30:43;16.00;99.90
59703;DHT22;45570;48.782;8.332;2022-11-02T10:33:15;15.90;99.90
59703;DHT22;45570;48.782;8.332;2022-11-02T10:35:50;16.00;99.90
59703;DHT22;45570;48.782;8.332;2022-11-02T10:38:47;16.20;99.90
59703;DHT22;45570;48.782;8.332;2022-11-02T10:41:39;16.30;99.90
59703;DHT22;45570;48.782;8.332;2022-11-02T10:44:21;16.20;99.90
59703;DHT22;45570;48.782;8.332;2022-11-02T10:47:01;16.60;99.90
59703;DHT22;45570;48.782;8.332;2022-11-02T10:52:40;16.40;99.90
59703;DHT22;45570;48.782;8.332;2022-11-02T10:55:17;16.60;99.90
59703;DHT22;45570;48.782;8.332;2022-11-02T10:57:50;17.30;99.90
59703;DHT22;45570;48.782;8.332;2022-11-02T11:00:25;17.50;99.90
59703;DHT22;45570;48.782;8.332;2022-11-02T11:03:06;17.50;99.90
59703;DHT22;45570;48.782;8.332;2022-11-02T11:05:37;17.10;99.90
59703;DHT22;45570;48.782;8.332;2022-11-02T11:08:19;17.40;99.90
59703;DHT22;45570;48.782;8.332;2022-11-02T11:10:51;18.10;99.90
59703;DHT22;45570;48.782;8.332;2022-11-02T11:13:22;18.70;99.90
59703;DHT22;45570;48.782;8.332;2022-11-02T11:16:11;18.40;99.90
59703;DHT22;45570;48.782;8.332;2022-11-02T11:18:49;17.40;99.90
59703;DHT22;45570;48.782;8.332;2022-11-02T11:21:39;17.30;99.90
59703;DHT22;45570;48.782;8.332;2022-11-02T11:24:19;17.30;99.90
59703;DHT22;45570;48.782;8.332;2022-11-02T11:27:16;17.70;99.90
59703;DHT22;45570;48.782;8.332;2022-11-02T11:29:49;18.00;99.90
59703;DHT22;45570;48.782;8.332;2022-11-02T11:32:22;17.60;99.90
59703;DHT22;45570;48.782;8.332;2022-11-02T11:34:58;17.30;99.90
59703;DHT22;45570;48.782;8.332;2022-11-02T11:37:27;17.10;99.90
59703;DHT22;45570;48.782;8.332;2022-11-02T11:39:59;16.60;99.90
59703;DHT22;45570;48.782;8.332;2022-11-02T11:42:31;16.30;99.90
59703;DHT22;45570;48.782;8.332;2022-11-02T11:45:04;16.20;99.90
59703;DHT22;45570;48.782;8.332;2022-11-02T11:47:35;16.00;99.90
59703;DHT22;45570;48.782;8.332;2022-11-02T11:50:11;15.70;99.90
59703;DHT22;45570;48.782;8.332;2022-11-02T11:53:08;15.80;99.90
59703;DHT22;45570;48.782;8.332;2022-11-02T11:55:45;16.80;99.90
59703;DHT22;45570;48.782;8.332;2022-11-02T11:58:17;16.90;99.90
59703;DHT22;45570;48.782;8.332;2022-11-02T12:01:05;17.30;99.90
59703;DHT22;45570;48.782;8.332;2022-11-02T12:03:52;17.10;99.90
59703;DHT22;45570;48.782;8.332;2022-11-02T12:06:28;16.60;99.90
59703;DHT22;45570;48.782;8.332;2022-11-02T12:09:04;16.40;99.90
59703;DHT22;45570;48.782;8.332;2022-11-02T12:11:46;16.10;99.90
59703;DHT22;45570;48.782;8.332;2022-11-02T12:14:36;16.20;99.90
59703;DHT22;45570;48.782;8.332;2022-11-02T12:17:24;17.00;99.90
59703;DHT22;45570;48.782;8.332;2022-11-02T12:20:18;17.60;99.90
59703;DHT22;45570;48.782;8.332;2022-11-02T12:22:58;18.60;99.90
59703;DHT22;45570;48.782;8.332;2022-11-02T12:25:43;18.40;99.90
59703;DHT22;45570;48.782;8.332;2022-11-02T12:28:27;18.10;99.90
59703;DHT22;45570;48.782;8.332;2022-11-02T12:31:06;18.10;99.90
59703;DHT22;45570;48.782;8.332;2022-11-02T12:34:05;17.90;99.90
59703;DHT22;45570;48.782;8.332;2022-11-02T12:36:47;18.20;99.90
59703;DHT22;45570;48.782;8.332;2022-11-02T12:39:47;18.80;99.90
59703;DHT22;45570;48.782;8.332;2022-11-02T12:42:26;19.50;99.90
59703;DHT22;45570;48.782;8.332;2022-11-02T12:45:04;20.00;99.90
59703;DHT22;45570;48.782;8.332;2022-11-02T12:47:54;20.70;99.90
59703;DHT22;45570;48.782;8.332;2022-11-02T12:50:36;21.80;99.90
59703;DHT22;45570;48.782;8.332;2022-11-02T12:53:25;21.50;99.90
59703;DHT22;45570;48.782;8.332;2022-11-02T12:56:00;21.90;99.90
59703;DHT22;45570;48.782;8.332;2022-11-02T12:58:32;21.60;99.90
59703;DHT22;45570;48.782;8.332;2022-11-02T13:01:17;21.10;99.90
59703;DHT22;45570;48.782;8.332;2022-11-02T13:03:50;20.90;99.90
59703;DHT22;45570;48.782;8.332;2022-11-02T13:06:25;20.90;99.90
59703;DHT22;45570;48.782;8.332;2022-11-02T13:09:01;20.90;99.90
59703;DHT22;45570;48.782;8.332;2022-11-02T13:11:34;20.90;99.90
59703;DHT22;45570;48.782;8.332;2022-11-02T13:14:10;20.50;99.90
59703;DHT22;45570;48.782;8.332;2022-11-02T13:16:45;20.70;99.90
59703;DHT22;45570;48.782;8.332;2022-11-02T13:19:18;20.90;99.90
59703;DHT22;45570;48.782;8.332;2022-11-02T13:21:51;21.50;99.90
59703;DHT22;45570;48.782;8.332;2022-11-02T13:24:22;21.60;99.90
59703;DHT22;45570;48.782;8.332;2022-11-02T13:26:59;21.20;99.90
59703;DHT22;45570;48.782;8.332;2022-11-02T13:29:51;21.20;99.90
59703;DHT22;45570;48.782;8.332;2022-11-02T13:32:27;21.40;99.90
59703;DHT22;45570;48.782;8.332;2022-11-02T13:35:04;21.20;99.90
59703;DHT22;45570;48.782;8.332;2022-11-02T13:37:39;21.30;99.90
59703;DHT22;45570;48.782;8.332;2022-11-02T13:40:15;21.70;99.90
59703;DHT22;45570;48.782;8.332;2022-11-02T13:43:11;22.30;99.90
59703;DHT22;45570;48.782;8.332;2022-11-02T13:45:57;22.10;99.90
59703;DHT22;45570;48.782;8.332;2022-11-02T13:48:39;22.20;99.90
59703;DHT22;45570;48.782;8.332;2022-11-02T13:51:22;21.20;99.90
59703;DHT22;45570;48.782;8.332;2022-11-02T13:53:58;20.70;99.90
59703;DHT22;45570;48.782;8.332;2022-11-02T13:56:28;20.30;99.90
59703;DHT22;45570;48.782;8.332;2022-11-02T13:59:00;20.30;99.90
59703;DHT22;45570;48.782;8.332;2022-11-02T14:01:32;20.40;99.90
59703;DHT22;45570;48.782;8.332;2022-11-02T14:04:05;20.40;99.90
59703;DHT22;45570;48.782;8.332;2022-11-02T14:06:45;20.60;99.90
59703;DHT22;45570;48.782;8.332;2022-11-02T14:09:27;20.50;99.90
59703;DHT22;45570;48.782;8.332;2022-11-02T14:12:17;20.30;99.90
